sensor_id;sensor_type;location;lat;lon;timestamp;P1;durP1;ratioP1;P2;durP2;ratioP2
19535;SDS011;9913;51.168;4.124;2022-07-29T00:00:22;7.20;;;3.80;;
19535;SDS011;9913;51.168;4.124;2022-07-29T00:02:52;6.30;;;3.35;;
19535;SDS011;9913;51.168;4.124;2022-07-29T00:05:21;6.28;;;3.60;;
19535;SDS011;9913;51.168;4.124;2022-07-29T00:07:49;4.80;;;3.20;;
19535;SDS011;9913;51.168;4.124;2022-07-29T00:10:18;4.28;;;3.40;;
19535;SDS011;9913;51.168;4.124;2022-07-29T00:12:46;4.95;;;2.97;;
19535;SDS011;9913;51.168;4.124;2022-07-29T00:15:15;6.90;;;3.08;;
19535;SDS011;9913;51.168;4.124;2022-07-29T00:17:43;5.72;;;3.13;;
19535;SDS011;9913;51.168;4.124;2022-07-29T00:20:13;4.85;;;2.90;;
19535;SDS011;9913;51.168;4.124;2022-07-29T00:22:41;6.15;;;3.00;;
19535;SDS011;9913;51.168;4.124;2022-07-29T00:25:11;4.97;;;3.38;;
19535;SDS011;9913;51.168;4.124;2022-07-29T00:27:40;7.55;;;3.25;;
19535;SDS011;9913;51.168;4.124;2022-07-29T00:30:08;4.72;;;3.05;;
19535;SDS011;9913;51.168;4.124;2022-07-29T00:32:37;3.60;;;2.80;;
19535;SDS011;9913;51.168;4.124;2022-07-29T00:35:06;4.78;;;2.75;;
19535;SDS011;9913;51.168;4.124;2022-07-29T00:37:53;4.22;;;2.65;;
19535;SDS011;9913;51.168;4.124;2022-07-29T00:40:22;4.22;;;2.50;;
19535;SDS011;9913;51.168;4.124;2022-07-29T00:42:50;4.38;;;2.58;;
19535;SDS011;9913;51.168;4.124;2022-07-29T00:45:19;4.53;;;2.42;;
19535;SDS011;9913;51.168;4.124;2022-07-29T00:47:48;5.13;;;2.30;;
19535;SDS011;9913;51.168;4.124;2022-07-29T00:50:17;5.07;;;2.40;;
19535;SDS011;9913;51.168;4.124;2022-07-29T00:52:45;2.72;;;2.10;;
19535;SDS011;9913;51.168;4.124;2022-07-29T00:55:15;3.25;;;2.30;;
19535;SDS011;9913;51.168;4.124;2022-07-29T00:57:44;4.40;;;2.60;;
19535;SDS011;9913;51.168;4.124;2022-07-29T01:00:14;4.20;;;2.10;;
19535;SDS011;9913;51.168;4.124;2022-07-29T01:02:45;4.25;;;2.70;;
19535;SDS011;9913;51.168;4.124;2022-07-29T01:05:15;4.43;;;2.30;;
19535;SDS011;9913;51.168;4.124;2022-07-29T01:07:45;4.93;;;2.25;;
19535;SDS011;9913;51.168;4.124;2022-07-29T01:10:18;3.38;;;2.13;;
19535;SDS011;9913;51.168;4.124;2022-07-29T01:12:48;3.08;;;2.13;;
19535;SDS011;9913;51.168;4.124;2022-07-29T01:15:18;3.30;;;2.53;;
19535;SDS011;9913;51.168;4.124;2022-07-29T01:17:48;4.32;;;2.28;;
19535;SDS011;9913;51.168;4.124;2022-07-29T01:20:23;3.17;;;2.22;;
19535;SDS011;9913;51.168;4.124;2022-07-29T01:26:13;3.75;;;2.63;;
19535;SDS011;9913;51.168;4.124;2022-07-29T01:29:01;5.65;;;2.40;;
19535;SDS011;9913;51.168;4.124;2022-07-29T01:31:36;4.43;;;2.20;;
19535;SDS011;9913;51.168;4.124;2022-07-29T01:34:27;3.80;;;2.22;;
19535;SDS011;9913;51.168;4.124;2022-07-29T01:37:05;3.50;;;2.40;;
19535;SDS011;9913;51.168;4.124;2022-07-29T01:39:40;3.50;;;2.17;;
19535;SDS011;9913;51.168;4.124;2022-07-29T01:42:12;3.35;;;2.50;;
19535;SDS011;9913;51.168;4.124;2022-07-29T01:44:50;4.60;;;2.20;;
19535;SDS011;9913;51.168;4.124;2022-07-29T01:47:25;3.22;;;2.10;;
19535;SDS011;9913;51.168;4.124;2022-07-29T01:50:01;2.55;;;2.03;;
19535;SDS011;9913;51.168;4.124;2022-07-29T01:52:36;2.80;;;2.38;;
19535;SDS011;9913;51.168;4.124;2022-07-29T01:55:11;2.97;;;2.40;;
19535;SDS011;9913;51.168;4.124;2022-07-29T01:57:43;4.75;;;2.50;;
19535;SDS011;9913;51.168;4.124;2022-07-29T02:00:16;4.53;;;2.30;;
19535;SDS011;9913;51.168;4.124;2022-07-29T02:02:45;3.78;;;2.72;;
19535;SDS011;9913;51.168;4.124;2022-07-29T02:05:17;3.85;;;2.33;;
19535;SDS011;9913;51.168;4.124;2022-07-29T02:07:50;4.45;;;2.60;;
19535;SDS011;9913;51.168;4.124;2022-07-29T02:10:23;3.83;;;2.28;;
19535;SDS011;9913;51.168;4.124;2022-07-29T02:12:56;4.43;;;2.42;;
19535;SDS011;9913;51.168;4.124;2022-07-29T02:15:28;4.35;;;2.72;;
19535;SDS011;9913;51.168;4.124;2022-07-29T02:18:01;3.33;;;1.88;;
19535;SDS011;9913;51.168;4.124;2022-07-29T02:20:32;5.18;;;2.08;;
19535;SDS011;9913;51.168;4.124;2022-07-29T02:23:02;4.30;;;2.45;;
19535;SDS011;9913;51.168;4.124;2022-07-29T02:25:31;2.63;;;1.95;;
19535;SDS011;9913;51.168;4.124;2022-07-29T02:28:04;5.85;;;2.00;;
19535;SDS011;9913;51.168;4.124;2022-07-29T02:30:36;5.28;;;2.17;;
19535;SDS011;9913;51.168;4.124;2022-07-29T02:33:10;3.88;;;2.40;;
19535;SDS011;9913;51.168;4.124;2022-07-29T02:35:41;5.88;;;2.08;;
19535;SDS011;9913;51.168;4.124;2022-07-29T02:38:13;3.05;;;1.80;;
19535;SDS011;9913;51.168;4.124;2022-07-29T02:41:01;4.22;;;1.88;;
19535;SDS011;9913;51.168;4.124;2022-07-29T02:43:33;4.97;;;2.45;;
19535;SDS011;9913;51.168;4.124;2022-07-29T02:46:05;2.55;;;2.05;;
19535;SDS011;9913;51.168;4.124;2022-07-29T02:48:56;2.70;;;2.00;;
19535;SDS011;9913;51.168;4.124;2022-07-29T02:51:31;3.90;;;2.17;;
19535;SDS011;9913;51.168;4.124;2022-07-29T02:54:10;3.33;;;2.15;;
19535;SDS011;9913;51.168;4.124;2022-07-29T02:56:42;3.42;;;2.28;;
19535;SDS011;9913;51.168;4.124;2022-07-29T02:59:15;3.53;;;2.45;;
19535;SDS011;9913;51.168;4.124;2022-07-29T03:01:49;2.30;;;2.03;;
19535;SDS011;9913;51.168;4.124;2022-07-29T03:04:18;3.35;;;2.08;;
19535;SDS011;9913;51.168;4.124;2022-07-29T03:06:49;3.50;;;2.28;;
19535;SDS011;9913;51.168;4.124;2022-07-29T03:09:20;3.08;;;2.22;;
19535;SDS011;9913;51.168;4.124;2022-07-29T03:11:51;5.43;;;2.40;;
19535;SDS011;9913;51.168;4.124;2022-07-29T03:14:21;3.25;;;2.08;;
19535;SDS011;9913;51.168;4.124;2022-07-29T03:16:52;2.55;;;2.13;;
19535;SDS011;9913;51.168;4.124;2022-07-29T03:19:20;3.25;;;2.20;;
19535;SDS011;9913;51.168;4.124;2022-07-29T03:21:51;4.03;;;2.92;;
19535;SDS011;9913;51.168;4.124;2022-07-29T03:24:27;5.30;;;2.47;;
19535;SDS011;9913;51.168;4.124;2022-07-29T03:26:57;3.38;;;2.58;;
19535;SDS011;9913;51.168;4.124;2022-07-29T03:29:25;4.10;;;2.50;;
19535;SDS011;9913;51.168;4.124;2022-07-29T03:32:01;2.60;;;2.10;;
19535;SDS011;9913;51.168;4.124;2022-07-29T03:34:34;4.80;;;2.42;;
19535;SDS011;9913;51.168;4.124;2022-07-29T03:37:06;4.63;;;2.53;;
19535;SDS011;9913;51.168;4.124;2022-07-29T03:39:36;3.40;;;2.50;;
19535;SDS011;9913;51.168;4.124;2022-07-29T03:42:08;4.65;;;2.88;;
19535;SDS011;9913;51.168;4.124;2022-07-29T03:44:40;4.85;;;2.63;;
19535;SDS011;9913;51.168;4.124;2022-07-29T03:47:12;3.47;;;2.38;;
19535;SDS011;9913;51.168;4.124;2022-07-29T03:49:42;4.10;;;2.60;;
19535;SDS011;9913;51.168;4.124;2022-07-29T03:52:14;4.18;;;2.67;;
19535;SDS011;9913;51.168;4.124;2022-07-29T03:54:43;3.80;;;2.10;;
19535;SDS011;9913;51.168;4.124;2022-07-29T03:57:11;4.85;;;2.50;;
19535;SDS011;9913;51.168;4.124;2022-07-29T03:59:40;2.75;;;2.00;;
19535;SDS011;9913;51.168;4.124;2022-07-29T04:02:11;3.22;;;2.30;;
19535;SDS011;9913;51.168;4.124;2022-07-29T04:04:47;6.03;;;2.83;;
19535;SDS011;9913;51.168;4.124;2022-07-29T04:07:15;4.68;;;2.70;;
19535;SDS011;9913;51.168;4.124;2022-07-29T04:09:44;4.72;;;2.40;;
19535;SDS011;9913;51.168;4.124;2022-07-29T04:12:12;4.82;;;2.42;;
19535;SDS011;9913;51.168;4.124;2022-07-29T04:14:40;4.53;;;2.47;;
19535;SDS011;9913;51.168;4.124;2022-07-29T04:17:09;3.80;;;2.58;;
19535;SDS011;9913;51.168;4.124;2022-07-29T04:19:38;7.07;;;2.80;;
19535;SDS011;9913;51.168;4.124;2022-07-29T04:22:09;5.03;;;2.70;;
19535;SDS011;9913;51.168;4.124;2022-07-29T04:24:38;3.33;;;2.53;;
19535;SDS011;9913;51.168;4.124;2022-07-29T04:27:10;3.95;;;2.83;;
19535;SDS011;9913;51.168;4.124;2022-07-29T04:29:38;4.25;;;2.85;;
19535;SDS011;9913;51.168;4.124;2022-07-29T04:32:23;3.85;;;2.88;;
19535;SDS011;9913;51.168;4.124;2022-07-29T04:34:52;4.22;;;2.65;;
19535;SDS011;9913;51.168;4.124;2022-07-29T04:37:21;4.28;;;2.67;;
19535;SDS011;9913;51.168;4.124;2022-07-29T04:39:49;5.10;;;2.70;;
19535;SDS011;9913;51.168;4.124;2022-07-29T04:42:17;3.72;;;2.53;;
19535;SDS011;9913;51.168;4.124;2022-07-29T04:44:53;5.70;;;2.92;;
19535;SDS011;9913;51.168;4.124;2022-07-29T04:47:21;6.13;;;2.67;;
19535;SDS011;9913;51.168;4.124;2022-07-29T04:49:50;3.15;;;2.60;;
19535;SDS011;9913;51.168;4.124;2022-07-29T04:52:20;4.28;;;2.53;;
19535;SDS011;9913;51.168;4.124;2022-07-29T04:54:48;5.60;;;3.17;;
19535;SDS011;9913;51.168;4.124;2022-07-29T04:57:17;4.47;;;2.83;;
19535;SDS011;9913;51.168;4.124;2022-07-29T04:59:46;6.38;;;2.70;;
19535;SDS011;9913;51.168;4.124;2022-07-29T05:02:15;4.53;;;2.53;;
19535;SDS011;9913;51.168;4.124;2022-07-29T05:04:43;4.57;;;3.35;;
19535;SDS011;9913;51.168;4.124;2022-07-29T05:07:12;5.07;;;3.00;;
19535;SDS011;9913;51.168;4.124;2022-07-29T05:09:42;4.82;;;3.28;;
19535;SDS011;9913;51.168;4.124;2022-07-29T05:12:10;5.32;;;2.90;;
19535;SDS011;9913;51.168;4.124;2022-07-29T05:14:38;3.50;;;2.63;;
19535;SDS011;9913;51.168;4.124;2022-07-29T05:17:07;4.65;;;2.95;;
19535;SDS011;9913;51.168;4.124;2022-07-29T05:19:35;4.18;;;2.97;;
19535;SDS011;9913;51.168;4.124;2022-07-29T05:22:05;4.55;;;2.80;;
19535;SDS011;9913;51.168;4.124;2022-07-29T05:24:34;3.63;;;2.75;;
19535;SDS011;9913;51.168;4.124;2022-07-29T05:27:03;5.88;;;3.40;;
19535;SDS011;9913;51.168;4.124;2022-07-29T05:29:32;5.00;;;3.13;;
19535;SDS011;9913;51.168;4.124;2022-07-29T05:32:11;5.00;;;3.00;;
19535;SDS011;9913;51.168;4.124;2022-07-29T05:34:39;6.07;;;3.10;;
19535;SDS011;9913;51.168;4.124;2022-07-29T05:37:17;3.92;;;2.85;;
19535;SDS011;9913;51.168;4.124;2022-07-29T05:39:46;3.38;;;3.08;;
19535;SDS011;9913;51.168;4.124;2022-07-29T05:42:24;3.47;;;2.97;;
19535;SDS011;9913;51.168;4.124;2022-07-29T05:44:53;5.85;;;2.95;;
19535;SDS011;9913;51.168;4.124;2022-07-29T05:47:21;4.63;;;2.55;;
19535;SDS011;9913;51.168;4.124;2022-07-29T05:49:50;5.57;;;2.95;;
19535;SDS011;9913;51.168;4.124;2022-07-29T05:52:19;6.05;;;3.10;;
19535;SDS011;9913;51.168;4.124;2022-07-29T05:54:47;3.78;;;3.22;;
19535;SDS011;9913;51.168;4.124;2022-07-29T05:57:16;4.32;;;2.90;;
19535;SDS011;9913;51.168;4.124;2022-07-29T05:59:49;4.10;;;2.92;;
19535;SDS011;9913;51.168;4.124;2022-07-29T06:02:21;5.07;;;2.90;;
19535;SDS011;9913;51.168;4.124;2022-07-29T06:04:49;6.40;;;3.30;;
19535;SDS011;9913;51.168;4.124;2022-07-29T06:07:17;4.50;;;3.22;;
19535;SDS011;9913;51.168;4.124;2022-07-29T06:09:46;5.60;;;3.38;;
19535;SDS011;9913;51.168;4.124;2022-07-29T06:12:14;5.43;;;3.33;;
19535;SDS011;9913;51.168;4.124;2022-07-29T06:14:43;4.65;;;2.75;;
19535;SDS011;9913;51.168;4.124;2022-07-29T06:17:12;4.75;;;3.03;;
19535;SDS011;9913;51.168;4.124;2022-07-29T06:19:41;4.72;;;3.45;;
19535;SDS011;9913;51.168;4.124;2022-07-29T06:22:09;6.32;;;3.30;;
19535;SDS011;9913;51.168;4.124;2022-07-29T06:24:37;6.90;;;3.50;;
19535;SDS011;9913;51.168;4.124;2022-07-29T06:27:10;4.30;;;3.20;;
19535;SDS011;9913;51.168;4.124;2022-07-29T06:29:38;4.82;;;3.30;;
19535;SDS011;9913;51.168;4.124;2022-07-29T06:32:07;5.72;;;3.53;;
19535;SDS011;9913;51.168;4.124;2022-07-29T06:34:37;5.88;;;2.97;;
19535;SDS011;9913;51.168;4.124;2022-07-29T06:37:09;4.35;;;3.13;;
19535;SDS011;9913;51.168;4.124;2022-07-29T06:39:41;5.68;;;3.42;;
19535;SDS011;9913;51.168;4.124;2022-07-29T06:42:09;3.80;;;3.10;;
19535;SDS011;9913;51.168;4.124;2022-07-29T06:44:38;5.68;;;3.65;;
19535;SDS011;9913;51.168;4.124;2022-07-29T06:47:06;5.65;;;3.05;;
19535;SDS011;9913;51.168;4.124;2022-07-29T06:49:34;6.82;;;3.53;;
19535;SDS011;9913;51.168;4.124;2022-07-29T06:52:04;6.45;;;3.40;;
19535;SDS011;9913;51.168;4.124;2022-07-29T06:54:33;8.85;;;3.63;;
19535;SDS011;9913;51.168;4.124;2022-07-29T06:57:01;5.28;;;3.30;;
19535;SDS011;9913;51.168;4.124;2022-07-29T06:59:29;4.28;;;3.40;;
19535;SDS011;9913;51.168;4.124;2022-07-29T07:02:01;8.10;;;3.78;;
19535;SDS011;9913;51.168;4.124;2022-07-29T07:04:30;4.82;;;3.30;;
19535;SDS011;9913;51.168;4.124;2022-07-29T07:06:59;4.75;;;3.00;;
19535;SDS011;9913;51.168;4.124;2022-07-29T07:09:28;4.95;;;3.33;;
19535;SDS011;9913;51.168;4.124;2022-07-29T07:12:06;4.72;;;3.15;;
19535;SDS011;9913;51.168;4.124;2022-07-29T07:14:35;5.35;;;3.08;;
19535;SDS011;9913;51.168;4.124;2022-07-29T07:17:03;5.07;;;3.63;;
19535;SDS011;9913;51.168;4.124;2022-07-29T07:19:33;6.18;;;3.40;;
19535;SDS011;9913;51.168;4.124;2022-07-29T07:22:02;4.45;;;3.35;;
19535;SDS011;9913;51.168;4.124;2022-07-29T07:24:31;4.90;;;3.70;;
19535;SDS011;9913;51.168;4.124;2022-07-29T07:27:00;8.98;;;3.83;;
19535;SDS011;9913;51.168;4.124;2022-07-29T07:29:28;5.03;;;3.63;;
19535;SDS011;9913;51.168;4.124;2022-07-29T07:31:57;7.10;;;3.80;;
19535;SDS011;9913;51.168;4.124;2022-07-29T07:34:27;8.52;;;4.13;;
19535;SDS011;9913;51.168;4.124;2022-07-29T07:36:56;7.63;;;4.32;;
19535;SDS011;9913;51.168;4.124;2022-07-29T07:39:24;4.68;;;3.65;;
19535;SDS011;9913;51.168;4.124;2022-07-29T07:41:55;7.97;;;3.75;;
19535;SDS011;9913;51.168;4.124;2022-07-29T07:44:23;7.82;;;4.15;;
19535;SDS011;9913;51.168;4.124;2022-07-29T07:46:51;7.13;;;4.05;;
19535;SDS011;9913;51.168;4.124;2022-07-29T07:49:20;5.72;;;3.45;;
19535;SDS011;9913;51.168;4.124;2022-07-29T07:51:48;6.90;;;4.03;;
19535;SDS011;9913;51.168;4.124;2022-07-29T07:54:19;7.88;;;4.03;;
19535;SDS011;9913;51.168;4.124;2022-07-29T07:56:48;6.68;;;4.05;;
19535;SDS011;9913;51.168;4.124;2022-07-29T07:59:20;8.20;;;3.97;;
19535;SDS011;9913;51.168;4.124;2022-07-29T08:01:48;5.57;;;3.65;;
19535;SDS011;9913;51.168;4.124;2022-07-29T08:04:22;6.40;;;3.78;;
19535;SDS011;9913;51.168;4.124;2022-07-29T08:06:54;6.85;;;3.60;;
19535;SDS011;9913;51.168;4.124;2022-07-29T08:09:23;5.53;;;3.70;;
19535;SDS011;9913;51.168;4.124;2022-07-29T08:11:56;8.23;;;4.18;;
19535;SDS011;9913;51.168;4.124;2022-07-29T08:14:26;6.03;;;3.78;;
19535;SDS011;9913;51.168;4.124;2022-07-29T08:16:56;6.63;;;3.90;;
19535;SDS011;9913;51.168;4.124;2022-07-29T08:19:24;6.03;;;3.80;;
19535;SDS011;9913;51.168;4.124;2022-07-29T08:21:53;5.05;;;3.63;;
19535;SDS011;9913;51.168;4.124;2022-07-29T08:24:21;5.68;;;3.50;;
19535;SDS011;9913;51.168;4.124;2022-07-29T08:27:07;4.88;;;3.08;;
19535;SDS011;9913;51.168;4.124;2022-07-29T08:29:57;6.03;;;3.35;;
19535;SDS011;9913;51.168;4.124;2022-07-29T08:32:25;5.60;;;3.53;;
19535;SDS011;9913;51.168;4.124;2022-07-29T08:35:14;6.00;;;3.25;;
19535;SDS011;9913;51.168;4.124;2022-07-29T08:37:43;5.43;;;3.40;;
19535;SDS011;9913;51.168;4.124;2022-07-29T08:40:11;6.22;;;4.00;;
19535;SDS011;9913;51.168;4.124;2022-07-29T08:42:40;4.80;;;3.25;;
19535;SDS011;9913;51.168;4.124;2022-07-29T08:45:10;4.97;;;3.40;;
19535;SDS011;9913;51.168;4.124;2022-07-29T08:47:39;4.03;;;3.05;;
19535;SDS011;9913;51.168;4.124;2022-07-29T08:50:07;5.22;;;3.70;;
19535;SDS011;9913;51.168;4.124;2022-07-29T08:52:37;3.90;;;3.00;;
19535;SDS011;9913;51.168;4.124;2022-07-29T08:55:09;5.03;;;2.90;;
19535;SDS011;9913;51.168;4.124;2022-07-29T08:57:38;6.13;;;3.05;;
19535;SDS011;9913;51.168;4.124;2022-07-29T09:00:21;3.97;;;2.75;;
19535;SDS011;9913;51.168;4.124;2022-07-29T09:02:55;3.88;;;2.55;;
19535;SDS011;9913;51.168;4.124;2022-07-29T09:05:26;6.10;;;2.53;;
19535;SDS011;9913;51.168;4.124;2022-07-29T09:07:55;4.53;;;2.28;;
19535;SDS011;9913;51.168;4.124;2022-07-29T09:10:24;5.55;;;2.40;;
19535;SDS011;9913;51.168;4.124;2022-07-29T09:12:54;4.47;;;2.30;;
19535;SDS011;9913;51.168;4.124;2022-07-29T09:15:25;3.38;;;2.03;;
19535;SDS011;9913;51.168;4.124;2022-07-29T09:17:54;4.28;;;2.15;;
19535;SDS011;9913;51.168;4.124;2022-07-29T09:20:25;3.05;;;2.05;;
19535;SDS011;9913;51.168;4.124;2022-07-29T09:23:14;2.75;;;1.98;;
19535;SDS011;9913;51.168;4.124;2022-07-29T09:25:50;4.35;;;1.80;;
19535;SDS011;9913;51.168;4.124;2022-07-29T09:28:19;3.55;;;2.13;;
19535;SDS011;9913;51.168;4.124;2022-07-29T09:30:52;3.58;;;1.70;;
19535;SDS011;9913;51.168;4.124;2022-07-29T09:33:22;3.83;;;1.60;;
19535;SDS011;9913;51.168;4.124;2022-07-29T09:35:58;3.05;;;1.90;;
19535;SDS011;9913;51.168;4.124;2022-07-29T09:38:31;3.25;;;2.10;;
19535;SDS011;9913;51.168;4.124;2022-07-29T09:41:02;3.70;;;2.00;;
19535;SDS011;9913;51.168;4.124;2022-07-29T09:43:35;3.38;;;1.88;;
19535;SDS011;9913;51.168;4.124;2022-07-29T09:46:13;5.18;;;1.70;;
19535;SDS011;9913;51.168;4.124;2022-07-29T09:48:42;3.10;;;1.65;;
19535;SDS011;9913;51.168;4.124;2022-07-29T09:51:16;5.25;;;2.00;;
19535;SDS011;9913;51.168;4.124;2022-07-29T09:53:54;4.68;;;1.70;;
19535;SDS011;9913;51.168;4.124;2022-07-29T09:56:28;4.35;;;2.25;;
19535;SDS011;9913;51.168;4.124;2022-07-29T09:59:08;4.90;;;1.80;;
19535;SDS011;9913;51.168;4.124;2022-07-29T10:01:39;2.92;;;1.80;;
19535;SDS011;9913;51.168;4.124;2022-07-29T10:04:10;3.25;;;1.80;;
19535;SDS011;9913;51.168;4.124;2022-07-29T10:09:31;3.90;;;1.83;;
19535;SDS011;9913;51.168;4.124;2022-07-29T10:12:08;3.70;;;2.00;;
19535;SDS011;9913;51.168;4.124;2022-07-29T10:14:37;3.40;;;2.00;;
19535;SDS011;9913;51.168;4.124;2022-07-29T10:17:08;3.53;;;1.70;;
19535;SDS011;9913;51.168;4.124;2022-07-29T10:19:39;3.83;;;1.80;;
19535;SDS011;9913;51.168;4.124;2022-07-29T10:22:10;3.33;;;2.08;;
19535;SDS011;9913;51.168;4.124;2022-07-29T10:24:40;3.70;;;1.73;;
19535;SDS011;9913;51.168;4.124;2022-07-29T10:27:09;4.85;;;2.25;;
19535;SDS011;9913;51.168;4.124;2022-07-29T10:29:39;4.22;;;1.95;;
19535;SDS011;9913;51.168;4.124;2022-07-29T10:38:00;3.42;;;1.95;;
19535;SDS011;9913;51.168;4.124;2022-07-29T10:40:45;4.90;;;2.03;;
19535;SDS011;9913;51.168;4.124;2022-07-29T10:43:46;4.88;;;2.22;;
19535;SDS011;9913;51.168;4.124;2022-07-29T10:46:17;3.58;;;2.13;;
19535;SDS011;9913;51.168;4.124;2022-07-29T10:52:00;2.30;;;1.40;;
19535;SDS011;9913;51.168;4.124;2022-07-29T10:54:42;3.35;;;2.00;;
19535;SDS011;9913;51.168;4.124;2022-07-29T10:57:20;2.00;;;1.65;;
19535;SDS011;9913;51.168;4.124;2022-07-29T11:00:26;2.80;;;1.80;;
19535;SDS011;9913;51.168;4.124;2022-07-29T11:03:01;4.60;;;1.70;;
19535;SDS011;9913;51.168;4.124;2022-07-29T11:05:53;5.88;;;2.20;;
19535;SDS011;9913;51.168;4.124;2022-07-29T11:08:25;3.95;;;1.90;;
19535;SDS011;9913;51.168;4.124;2022-07-29T11:14:17;4.30;;;1.60;;
19535;SDS011;9913;51.168;4.124;2022-07-29T11:17:02;3.42;;;1.75;;
19535;SDS011;9913;51.168;4.124;2022-07-29T11:19:33;2.60;;;1.52;;
19535;SDS011;9913;51.168;4.124;2022-07-29T11:22:33;3.95;;;1.95;;
19535;SDS011;9913;51.168;4.124;2022-07-29T11:25:13;2.58;;;1.25;;
19535;SDS011;9913;51.168;4.124;2022-07-29T11:27:42;2.75;;;1.88;;
19535;SDS011;9913;51.168;4.124;2022-07-29T11:30:13;2.72;;;1.70;;
19535;SDS011;9913;51.168;4.124;2022-07-29T11:32:43;2.42;;;1.38;;
19535;SDS011;9913;51.168;4.124;2022-07-29T11:35:15;2.85;;;1.50;;
19535;SDS011;9913;51.168;4.124;2022-07-29T11:43:49;2.88;;;1.67;;
19535;SDS011;9913;51.168;4.124;2022-07-29T11:49:12;4.20;;;2.05;;
19535;SDS011;9913;51.168;4.124;2022-07-29T11:51:50;5.03;;;1.67;;
19535;SDS011;9913;51.168;4.124;2022-07-29T11:54:23;6.60;;;2.00;;
19535;SDS011;9913;51.168;4.124;2022-07-29T11:56:53;3.58;;;1.70;;
19535;SDS011;9913;51.168;4.124;2022-07-29T11:59:22;3.85;;;1.90;;
19535;SDS011;9913;51.168;4.124;2022-07-29T12:02:00;4.13;;;1.90;;
19535;SDS011;9913;51.168;4.124;2022-07-29T12:04:49;4.25;;;2.17;;
19535;SDS011;9913;51.168;4.124;2022-07-29T12:07:18;3.85;;;1.85;;
19535;SDS011;9913;51.168;4.124;2022-07-29T12:10:02;5.53;;;2.15;;
19535;SDS011;9913;51.168;4.124;2022-07-29T12:12:31;2.83;;;1.63;;
19535;SDS011;9913;51.168;4.124;2022-07-29T12:17:48;6.55;;;1.67;;
19535;SDS011;9913;51.168;4.124;2022-07-29T12:20:22;5.15;;;2.08;;
19535;SDS011;9913;51.168;4.124;2022-07-29T12:22:53;4.07;;;1.92;;
19535;SDS011;9913;51.168;4.124;2022-07-29T12:25:23;4.55;;;2.17;;
19535;SDS011;9913;51.168;4.124;2022-07-29T12:28:01;3.78;;;2.60;;
19535;SDS011;9913;51.168;4.124;2022-07-29T12:30:42;2.83;;;2.05;;
19535;SDS011;9913;51.168;4.124;2022-07-29T12:33:14;3.10;;;2.13;;
19535;SDS011;9913;51.168;4.124;2022-07-29T12:35:45;4.30;;;2.35;;
19535;SDS011;9913;51.168;4.124;2022-07-29T12:38:32;3.97;;;1.88;;
19535;SDS011;9913;51.168;4.124;2022-07-29T12:41:03;2.95;;;2.17;;
19535;SDS011;9913;51.168;4.124;2022-07-29T12:43:32;2.80;;;1.92;;
19535;SDS011;9913;51.168;4.124;2022-07-29T12:46:11;3.30;;;2.22;;
19535;SDS011;9913;51.168;4.124;2022-07-29T12:48:42;4.80;;;2.65;;
19535;SDS011;9913;51.168;4.124;2022-07-29T12:51:11;5.60;;;2.30;;
19535;SDS011;9913;51.168;4.124;2022-07-29T12:53:41;3.90;;;2.45;;
19535;SDS011;9913;51.168;4.124;2022-07-29T12:56:16;2.95;;;2.35;;
19535;SDS011;9913;51.168;4.124;2022-07-29T12:59:11;4.82;;;2.80;;
19535;SDS011;9913;51.168;4.124;2022-07-29T13:01:41;5.07;;;2.40;;
19535;SDS011;9913;51.168;4.124;2022-07-29T13:04:09;5.93;;;2.60;;
19535;SDS011;9913;51.168;4.124;2022-07-29T13:06:38;3.63;;;2.70;;
19535;SDS011;9913;51.168;4.124;2022-07-29T13:09:12;6.60;;;2.72;;
19535;SDS011;9913;51.168;4.124;2022-07-29T13:11:43;2.88;;;2.22;;
19535;SDS011;9913;51.168;4.124;2022-07-29T13:14:30;3.97;;;2.28;;
19535;SDS011;9913;51.168;4.124;2022-07-29T13:17:01;4.05;;;2.55;;
19535;SDS011;9913;51.168;4.124;2022-07-29T13:19:35;5.00;;;2.33;;
19535;SDS011;9913;51.168;4.124;2022-07-29T13:22:07;3.33;;;2.00;;
19535;SDS011;9913;51.168;4.124;2022-07-29T13:24:45;3.22;;;1.80;;
19535;SDS011;9913;51.168;4.124;2022-07-29T13:27:16;5.43;;;2.45;;
19535;SDS011;9913;51.168;4.124;2022-07-29T13:29:44;6.07;;;2.10;;
19535;SDS011;9913;51.168;4.124;2022-07-29T13:32:14;4.10;;;2.40;;
19535;SDS011;9913;51.168;4.124;2022-07-29T13:34:42;3.15;;;2.13;;
19535;SDS011;9913;51.168;4.124;2022-07-29T13:37:11;3.72;;;2.15;;
19535;SDS011;9913;51.168;4.124;2022-07-29T13:39:39;2.70;;;1.92;;
19535;SDS011;9913;51.168;4.124;2022-07-29T13:42:19;3.55;;;1.90;;
19535;SDS011;9913;51.168;4.124;2022-07-29T13:44:48;5.38;;;2.00;;
19535;SDS011;9913;51.168;4.124;2022-07-29T13:47:18;4.00;;;2.40;;
19535;SDS011;9913;51.168;4.124;2022-07-29T13:49:47;7.63;;;2.58;;
19535;SDS011;9913;51.168;4.124;2022-07-29T13:52:15;3.08;;;2.38;;
19535;SDS011;9913;51.168;4.124;2022-07-29T13:54:44;4.00;;;2.45;;
19535;SDS011;9913;51.168;4.124;2022-07-29T13:57:13;4.82;;;2.40;;
19535;SDS011;9913;51.168;4.124;2022-07-29T13:59:43;3.03;;;2.20;;
19535;SDS011;9913;51.168;4.124;2022-07-29T14:02:19;3.75;;;2.35;;
19535;SDS011;9913;51.168;4.124;2022-07-29T14:04:51;5.38;;;2.80;;
19535;SDS011;9913;51.168;4.124;2022-07-29T14:07:20;3.58;;;2.40;;
19535;SDS011;9913;51.168;4.124;2022-07-29T14:09:49;3.25;;;1.88;;
19535;SDS011;9913;51.168;4.124;2022-07-29T14:12:17;2.65;;;2.00;;
19535;SDS011;9913;51.168;4.124;2022-07-29T14:14:47;3.63;;;2.40;;
19535;SDS011;9913;51.168;4.124;2022-07-29T14:17:16;2.63;;;2.40;;
19535;SDS011;9913;51.168;4.124;2022-07-29T14:19:45;4.88;;;2.42;;
19535;SDS011;9913;51.168;4.124;2022-07-29T14:22:13;4.00;;;2.10;;
19535;SDS011;9913;51.168;4.124;2022-07-29T14:24:41;6.07;;;2.85;;
19535;SDS011;9913;51.168;4.124;2022-07-29T14:27:10;2.85;;;2.50;;
19535;SDS011;9913;51.168;4.124;2022-07-29T14:29:40;5.38;;;2.05;;
19535;SDS011;9913;51.168;4.124;2022-07-29T14:32:09;4.13;;;2.30;;
19535;SDS011;9913;51.168;4.124;2022-07-29T14:34:38;4.00;;;2.28;;
19535;SDS011;9913;51.168;4.124;2022-07-29T14:37:07;4.65;;;2.90;;
19535;SDS011;9913;51.168;4.124;2022-07-29T14:39:41;3.30;;;2.20;;
19535;SDS011;9913;51.168;4.124;2022-07-29T14:42:10;6.82;;;2.58;;
19535;SDS011;9913;51.168;4.124;2022-07-29T14:44:39;4.15;;;2.20;;
19535;SDS011;9913;51.168;4.124;2022-07-29T14:47:11;4.22;;;2.30;;
19535;SDS011;9913;51.168;4.124;2022-07-29T14:49:39;4.55;;;2.05;;
19535;SDS011;9913;51.168;4.124;2022-07-29T14:52:08;3.78;;;2.00;;
19535;SDS011;9913;51.168;4.124;2022-07-29T14:54:36;3.97;;;2.80;;
19535;SDS011;9913;51.168;4.124;2022-07-29T14:57:05;5.35;;;3.28;;
19535;SDS011;9913;51.168;4.124;2022-07-29T14:59:34;3.13;;;2.50;;
19535;SDS011;9913;51.168;4.124;2022-07-29T15:02:02;6.05;;;2.95;;
19535;SDS011;9913;51.168;4.124;2022-07-29T15:04:32;4.65;;;3.30;;
19535;SDS011;9913;51.168;4.124;2022-07-29T15:07:01;5.45;;;2.95;;
19535;SDS011;9913;51.168;4.124;2022-07-29T15:09:30;5.22;;;2.72;;
19535;SDS011;9913;51.168;4.124;2022-07-29T15:12:06;3.05;;;2.50;;
19535;SDS011;9913;51.168;4.124;2022-07-29T15:14:34;4.88;;;3.33;;
19535;SDS011;9913;51.168;4.124;2022-07-29T15:17:03;5.72;;;2.35;;
19535;SDS011;9913;51.168;4.124;2022-07-29T15:19:34;3.60;;;2.53;;
19535;SDS011;9913;51.168;4.124;2022-07-29T15:22:03;3.05;;;2.08;;
19535;SDS011;9913;51.168;4.124;2022-07-29T15:24:32;3.78;;;2.10;;
19535;SDS011;9913;51.168;4.124;2022-07-29T15:27:01;3.53;;;2.00;;
19535;SDS011;9913;51.168;4.124;2022-07-29T15:29:29;6.65;;;2.35;;
19535;SDS011;9913;51.168;4.124;2022-07-29T15:31:57;3.92;;;2.50;;
19535;SDS011;9913;51.168;4.124;2022-07-29T15:34:28;3.08;;;2.05;;
19535;SDS011;9913;51.168;4.124;2022-07-29T15:36:58;4.20;;;2.10;;
19535;SDS011;9913;51.168;4.124;2022-07-29T15:39:27;4.75;;;2.10;;
19535;SDS011;9913;51.168;4.124;2022-07-29T15:41:55;2.92;;;1.70;;
19535;SDS011;9913;51.168;4.124;2022-07-29T15:44:26;2.92;;;1.70;;
19535;SDS011;9913;51.168;4.124;2022-07-29T15:46:54;3.40;;;2.55;;
19535;SDS011;9913;51.168;4.124;2022-07-29T15:49:34;2.80;;;2.05;;
19535;SDS011;9913;51.168;4.124;2022-07-29T15:52:16;2.40;;;1.70;;
19535;SDS011;9913;51.168;4.124;2022-07-29T15:54:52;5.30;;;2.38;;
19535;SDS011;9913;51.168;4.124;2022-07-29T15:57:21;3.83;;;2.10;;